CheckWX is a tool to help pilots better visualize weather data.  It is not intended as a substitute for an official pre-flight weather briefing.

19:59:00 UTC

KFOZ METAR
Bigfork Municipal Airport
Bigfork, Minnesota, USA
Current

2 hours ago

KFOZ 251814Z AUTO 28006KT 10SM SCT020 SCT055 17/14 A2974 RMK AO2
Observed
Jun-25 @ 18:14 UTC
Wind
  • 280° at 6 KTS
Visibility
10 SM
Flight Rules
VFR
Cloud Levels
  • Scattered at 2,000' AGL
  • Scattered at 5,500' AGL
Temperature
17°C / 63°F
Dewpoint
14°C / 57°F
Humidity
83%
Altimeter
29.74" Hg
Pressure
1007.12 hPa
Previous

2 hours ago

KFOZ 251757Z AUTO 27007KT 253V343 10SM SCT020 18/14 A2974 RMK AO2
Observed
Jun-25 @ 17:57 UTC
Wind
  • 270° at 7 KTS
Visibility
10 SM
Flight Rules
VFR
Cloud Levels
  • Scattered at 2,000' AGL
Temperature
18°C / 64°F
Dewpoint
14°C / 57°F
Humidity
78%
Altimeter
29.74" Hg
Pressure
1007.12 hPa
Previous

2 hours ago

KFOZ 251734Z AUTO 25005G15KT 10SM SCT018 18/14 A2974 RMK AO2
Observed
Jun-25 @ 17:34 UTC
Wind
  • 250° at 5 KTS
  • Gusting to 15 KTS
Visibility
10 SM
Flight Rules
VFR
Cloud Levels
  • Scattered at 1,800' AGL
Temperature
18°C / 64°F
Dewpoint
14°C / 57°F
Humidity
78%
Altimeter
29.74" Hg
Pressure
1007.12 hPa